sensor_id;sensor_type;location;lat;lon;timestamp;temperature;humidity
49184;DHT22;35021;49.214;12.270;2023-07-13T00:02:19;23.10;68.80
49184;DHT22;35021;49.214;12.270;2023-07-13T00:04:47;23.10;68.80
49184;DHT22;35021;49.214;12.270;2023-07-13T00:07:14;23.00;68.70
49184;DHT22;35021;49.214;12.270;2023-07-13T00:09:41;23.10;68.60
49184;DHT22;35021;49.214;12.270;2023-07-13T00:12:27;23.10;68.60
49184;DHT22;35021;49.214;12.270;2023-07-13T00:15:00;23.10;68.50
49184;DHT22;35021;49.214;12.270;2023-07-13T00:17:28;23.10;68.40
49184;DHT22;35021;49.214;12.270;2023-07-13T00:19:57;23.10;68.40
49184;DHT22;35021;49.214;12.270;2023-07-13T00:22:26;23.10;68.30
49184;DHT22;35021;49.214;12.270;2023-07-13T00:24:54;23.10;68.20
49184;DHT22;35021;49.214;12.270;2023-07-13T00:27:24;23.10;68.20
49184;DHT22;35021;49.214;12.270;2023-07-13T00:29:53;23.10;68.10
49184;DHT22;35021;49.214;12.270;2023-07-13T00:32:20;23.10;68.00
49184;DHT22;35021;49.214;12.270;2023-07-13T00:34:48;23.10;68.00
49184;DHT22;35021;49.214;12.270;2023-07-13T00:37:15;23.10;67.90
49184;DHT22;35021;49.214;12.270;2023-07-13T00:39:42;23.10;67.90
49184;DHT22;35021;49.214;12.270;2023-07-13T00:42:09;23.10;67.90
49184;DHT22;35021;49.214;12.270;2023-07-13T00:44:37;23.10;67.80
49184;DHT22;35021;49.214;12.270;2023-07-13T00:47:06;23.10;67.80
49184;DHT22;35021;49.214;12.270;2023-07-13T00:49:35;23.10;67.80
49184;DHT22;35021;49.214;12.270;2023-07-13T00:52:06;23.10;67.70
49184;DHT22;35021;49.214;12.270;2023-07-13T00:54:41;23.10;67.70
49184;DHT22;35021;49.214;12.270;2023-07-13T00:57:15;23.10;67.70
49184;DHT22;35021;49.214;12.270;2023-07-13T00:59:47;23.10;67.60
49184;DHT22;35021;49.214;12.270;2023-07-13T01:02:16;23.10;67.60
49184;DHT22;35021;49.214;12.270;2023-07-13T01:04:43;23.10;67.50
49184;DHT22;35021;49.214;12.270;2023-07-13T01:07:12;23.10;67.60
49184;DHT22;35021;49.214;12.270;2023-07-13T01:09:40;23.10;67.50
49184;DHT22;35021;49.214;12.270;2023-07-13T01:12:07;23.10;67.60
49184;DHT22;35021;49.214;12.270;2023-07-13T01:14:34;23.10;67.50
49184;DHT22;35021;49.214;12.270;2023-07-13T01:17:01;23.10;67.60
49184;DHT22;35021;49.214;12.270;2023-07-13T01:19:43;23.10;67.60
49184;DHT22;35021;49.214;12.270;2023-07-13T01:22:13;23.10;67.60
49184;DHT22;35021;49.214;12.270;2023-07-13T01:24:43;23.10;67.50
49184;DHT22;35021;49.214;12.270;2023-07-13T01:27:14;23.10;67.50
49184;DHT22;35021;49.214;12.270;2023-07-13T01:29:43;23.10;67.50
49184;DHT22;35021;49.214;12.270;2023-07-13T01:32:17;23.10;67.40
49184;DHT22;35021;49.214;12.270;2023-07-13T01:34:52;23.10;67.40
49184;DHT22;35021;49.214;12.270;2023-07-13T01:37:22;23.10;67.30
49184;DHT22;35021;49.214;12.270;2023-07-13T01:39:50;23.10;67.20
49184;DHT22;35021;49.214;12.270;2023-07-13T01:42:18;23.10;67.10
49184;DHT22;35021;49.214;12.270;2023-07-13T01:44:45;23.10;67.10
49184;DHT22;35021;49.214;12.270;2023-07-13T01:47:12;23.10;67.10
49184;DHT22;35021;49.214;12.270;2023-07-13T01:49:39;23.10;67.10
49184;DHT22;35021;49.214;12.270;2023-07-13T01:52:07;23.10;67.10
49184;DHT22;35021;49.214;12.270;2023-07-13T01:54:35;23.00;67.10
49184;DHT22;35021;49.214;12.270;2023-07-13T01:57:02;23.00;67.20
49184;DHT22;35021;49.214;12.270;2023-07-13T01:59:30;23.00;67.30
49184;DHT22;35021;49.214;12.270;2023-07-13T02:02:00;23.00;67.30
49184;DHT22;35021;49.214;12.270;2023-07-13T02:04:27;23.00;67.30
49184;DHT22;35021;49.214;12.270;2023-07-13T02:06:54;23.00;67.30
49184;DHT22;35021;49.214;12.270;2023-07-13T02:09:22;23.00;67.30
49184;DHT22;35021;49.214;12.270;2023-07-13T02:11:49;23.00;67.30
49184;DHT22;35021;49.214;12.270;2023-07-13T02:14:17;23.00;67.30
49184;DHT22;35021;49.214;12.270;2023-07-13T02:16:44;23.00;67.30
49184;DHT22;35021;49.214;12.270;2023-07-13T02:19:11;23.00;67.30
49184;DHT22;35021;49.214;12.270;2023-07-13T02:21:39;23.00;67.20
49184;DHT22;35021;49.214;12.270;2023-07-13T02:24:08;23.00;67.20
49184;DHT22;35021;49.214;12.270;2023-07-13T02:26:35;23.00;67.20
49184;DHT22;35021;49.214;12.270;2023-07-13T02:29:02;23.00;67.10
49184;DHT22;35021;49.214;12.270;2023-07-13T02:31:30;23.00;67.10
49184;DHT22;35021;49.214;12.270;2023-07-13T02:33:57;23.00;67.10
49184;DHT22;35021;49.214;12.270;2023-07-13T02:36:24;23.00;67.10
49184;DHT22;35021;49.214;12.270;2023-07-13T02:38:52;23.00;67.10
49184;DHT22;35021;49.214;12.270;2023-07-13T02:41:19;23.00;67.10
49184;DHT22;35021;49.214;12.270;2023-07-13T02:43:46;23.00;67.10
49184;DHT22;35021;49.214;12.270;2023-07-13T02:46:13;23.00;67.70
49184;DHT22;35021;49.214;12.270;2023-07-13T02:48:41;23.00;67.00
49184;DHT22;35021;49.214;12.270;2023-07-13T02:51:08;23.00;66.90
49184;DHT22;35021;49.214;12.270;2023-07-13T02:53:35;23.00;66.90
49184;DHT22;35021;49.214;12.270;2023-07-13T02:56:04;23.00;66.80
49184;DHT22;35021;49.214;12.270;2023-07-13T02:58:31;23.00;66.80
49184;DHT22;35021;49.214;12.270;2023-07-13T03:00:59;23.00;66.70
49184;DHT22;35021;49.214;12.270;2023-07-13T03:03:26;23.00;66.70
49184;DHT22;35021;49.214;12.270;2023-07-13T03:05:59;23.00;66.70
49184;DHT22;35021;49.214;12.270;2023-07-13T03:08:27;23.00;66.60
49184;DHT22;35021;49.214;12.270;2023-07-13T03:11:09;23.00;66.50
49184;DHT22;35021;49.214;12.270;2023-07-13T03:13:38;23.00;66.50
49184;DHT22;35021;49.214;12.270;2023-07-13T03:16:07;23.00;66.40
49184;DHT22;35021;49.214;12.270;2023-07-13T03:18:36;23.00;66.30
49184;DHT22;35021;49.214;12.270;2023-07-13T03:21:05;23.00;66.00
49184;DHT22;35021;49.214;12.270;2023-07-13T03:23:32;22.90;66.00
49184;DHT22;35021;49.214;12.270;2023-07-13T03:26:10;22.90;66.30
49184;DHT22;35021;49.214;12.270;2023-07-13T03:28:38;22.80;66.50
49184;DHT22;35021;49.214;12.270;2023-07-13T03:31:12;22.80;66.60
49184;DHT22;35021;49.214;12.270;2023-07-13T03:33:40;22.70;66.80
49184;DHT22;35021;49.214;12.270;2023-07-13T03:36:11;22.70;66.90
49184;DHT22;35021;49.214;12.270;2023-07-13T03:38:39;22.60;67.00
49184;DHT22;35021;49.214;12.270;2023-07-13T03:41:06;22.60;67.10
49184;DHT22;35021;49.214;12.270;2023-07-13T03:43:33;22.60;67.20
49184;DHT22;35021;49.214;12.270;2023-07-13T03:46:00;22.60;67.30
49184;DHT22;35021;49.214;12.270;2023-07-13T03:48:27;22.60;67.30
49184;DHT22;35021;49.214;12.270;2023-07-13T03:50:55;22.60;67.30
49184;DHT22;35021;49.214;12.270;2023-07-13T03:53:22;22.60;67.30
49184;DHT22;35021;49.214;12.270;2023-07-13T03:55:49;22.60;67.20
49184;DHT22;35021;49.214;12.270;2023-07-13T03:58:31;22.60;67.00
49184;DHT22;35021;49.214;12.270;2023-07-13T04:01:08;22.50;67.00
49184;DHT22;35021;49.214;12.270;2023-07-13T04:03:36;22.50;67.10
49184;DHT22;35021;49.214;12.270;2023-07-13T04:06:05;22.50;67.20
49184;DHT22;35021;49.214;12.270;2023-07-13T04:08:34;22.50;67.40
49184;DHT22;35021;49.214;12.270;2023-07-13T04:11:26;22.40;67.40
49184;DHT22;35021;49.214;12.270;2023-07-13T04:13:54;22.40;67.60
49184;DHT22;35021;49.214;12.270;2023-07-13T04:16:21;22.40;67.60
49184;DHT22;35021;49.214;12.270;2023-07-13T04:18:49;22.50;67.60
49184;DHT22;35021;49.214;12.270;2023-07-13T04:21:17;22.40;67.60
49184;DHT22;35021;49.214;12.270;2023-07-13T04:23:44;22.40;67.60
49184;DHT22;35021;49.214;12.270;2023-07-13T04:26:11;22.40;67.50
49184;DHT22;35021;49.214;12.270;2023-07-13T04:28:40;22.40;67.30
49184;DHT22;35021;49.214;12.270;2023-07-13T04:31:07;22.40;67.30
49184;DHT22;35021;49.214;12.270;2023-07-13T04:33:35;22.40;67.30
49184;DHT22;35021;49.214;12.270;2023-07-13T04:36:02;22.40;67.40
49184;DHT22;35021;49.214;12.270;2023-07-13T04:38:30;22.40;67.50
49184;DHT22;35021;49.214;12.270;2023-07-13T04:41:00;22.40;67.50
49184;DHT22;35021;49.214;12.270;2023-07-13T04:43:28;22.40;67.60
49184;DHT22;35021;49.214;12.270;2023-07-13T04:45:56;22.40;67.60
49184;DHT22;35021;49.214;12.270;2023-07-13T04:48:23;22.40;67.60
49184;DHT22;35021;49.214;12.270;2023-07-13T04:50:58;22.40;67.60
49184;DHT22;35021;49.214;12.270;2023-07-13T04:53:26;22.40;67.60
49184;DHT22;35021;49.214;12.270;2023-07-13T04:55:53;22.40;67.60
49184;DHT22;35021;49.214;12.270;2023-07-13T04:58:20;22.40;68.00
49184;DHT22;35021;49.214;12.270;2023-07-13T05:00:48;22.40;67.70
49184;DHT22;35021;49.214;12.270;2023-07-13T05:03:16;22.40;67.80
49184;DHT22;35021;49.214;12.270;2023-07-13T05:05:58;22.40;67.90
49184;DHT22;35021;49.214;12.270;2023-07-13T05:08:40;22.40;67.90
49184;DHT22;35021;49.214;12.270;2023-07-13T05:11:33;22.40;67.90
49184;DHT22;35021;49.214;12.270;2023-07-13T05:23:22;22.40;67.90
49184;DHT22;35021;49.214;12.270;2023-07-13T05:26:17;22.40;67.90
49184;DHT22;35021;49.214;12.270;2023-07-13T05:28:53;22.50;67.70
49184;DHT22;35021;49.214;12.270;2023-07-13T05:31:28;22.50;67.60
49184;DHT22;35021;49.214;12.270;2023-07-13T05:34:16;22.50;67.50
49184;DHT22;35021;49.214;12.270;2023-07-13T05:46:03;22.60;66.80
49184;DHT22;35021;49.214;12.270;2023-07-13T05:49:40;22.60;66.70
49184;DHT22;35021;49.214;12.270;2023-07-13T05:53:20;22.60;66.50
49184;DHT22;35021;49.214;12.270;2023-07-13T05:56:10;22.60;66.30
49184;DHT22;35021;49.214;12.270;2023-07-13T05:58:51;22.60;66.20
49184;DHT22;35021;49.214;12.270;2023-07-13T06:01:31;22.60;66.00
49184;DHT22;35021;49.214;12.270;2023-07-13T06:04:01;22.60;65.80
49184;DHT22;35021;49.214;12.270;2023-07-13T06:06:29;22.60;65.60
49184;DHT22;35021;49.214;12.270;2023-07-13T06:08:58;22.60;65.40
49184;DHT22;35021;49.214;12.270;2023-07-13T06:11:34;22.60;65.30
49184;DHT22;35021;49.214;12.270;2023-07-13T06:14:29;22.50;65.30
49184;DHT22;35021;49.214;12.270;2023-07-13T06:17:05;22.50;65.30
49184;DHT22;35021;49.214;12.270;2023-07-13T06:19:47;22.40;65.30
49184;DHT22;35021;49.214;12.270;2023-07-13T06:22:49;22.40;65.30
49184;DHT22;35021;49.214;12.270;2023-07-13T06:25:18;22.40;65.40
49184;DHT22;35021;49.214;12.270;2023-07-13T06:27:48;22.40;65.40
49184;DHT22;35021;49.214;12.270;2023-07-13T06:30:28;22.40;65.30
49184;DHT22;35021;49.214;12.270;2023-07-13T06:32:57;22.40;65.20
49184;DHT22;35021;49.214;12.270;2023-07-13T06:35:42;22.40;65.30
49184;DHT22;35021;49.214;12.270;2023-07-13T06:38:09;22.40;65.30
49184;DHT22;35021;49.214;12.270;2023-07-13T06:40:36;22.40;65.30
49184;DHT22;35021;49.214;12.270;2023-07-13T06:43:03;22.40;65.30
49184;DHT22;35021;49.214;12.270;2023-07-13T06:45:30;22.40;65.20
49184;DHT22;35021;49.214;12.270;2023-07-13T06:47:57;22.30;65.20
49184;DHT22;35021;49.214;12.270;2023-07-13T06:50:24;22.30;65.20
49184;DHT22;35021;49.214;12.270;2023-07-13T06:52:51;22.30;65.20
49184;DHT22;35021;49.214;12.270;2023-07-13T06:55:18;22.30;65.10
49184;DHT22;35021;49.214;12.270;2023-07-13T06:57:45;22.30;65.10
49184;DHT22;35021;49.214;12.270;2023-07-13T07:00:12;22.40;65.10
49184;DHT22;35021;49.214;12.270;2023-07-13T07:02:39;22.40;65.10
49184;DHT22;35021;49.214;12.270;2023-07-13T07:05:07;22.30;65.00
49184;DHT22;35021;49.214;12.270;2023-07-13T07:07:34;22.30;65.00
49184;DHT22;35021;49.214;12.270;2023-07-13T07:10:02;22.30;65.70
49184;DHT22;35021;49.214;12.270;2023-07-13T07:12:30;22.30;65.00
49184;DHT22;35021;49.214;12.270;2023-07-13T07:14:57;22.30;65.00
49184;DHT22;35021;49.214;12.270;2023-07-13T07:17:24;22.30;64.90
49184;DHT22;35021;49.214;12.270;2023-07-13T07:19:52;22.30;64.70
49184;DHT22;35021;49.214;12.270;2023-07-13T07:22:22;22.40;64.60
49184;DHT22;35021;49.214;12.270;2023-07-13T07:24:49;22.40;64.40
49184;DHT22;35021;49.214;12.270;2023-07-13T07:27:16;22.40;64.30
49184;DHT22;35021;49.214;12.270;2023-07-13T07:29:46;22.40;64.20
49184;DHT22;35021;49.214;12.270;2023-07-13T07:32:33;22.40;64.10
49184;DHT22;35021;49.214;12.270;2023-07-13T07:35:04;22.50;64.10
49184;DHT22;35021;49.214;12.270;2023-07-13T07:37:31;22.50;64.00
49184;DHT22;35021;49.214;12.270;2023-07-13T07:40:01;22.50;63.90
49184;DHT22;35021;49.214;12.270;2023-07-13T07:42:32;22.60;63.90
49184;DHT22;35021;49.214;12.270;2023-07-13T07:44:59;22.60;63.80
49184;DHT22;35021;49.214;12.270;2023-07-13T07:47:28;22.60;63.70
49184;DHT22;35021;49.214;12.270;2023-07-13T07:49:57;22.60;63.70
49184;DHT22;35021;49.214;12.270;2023-07-13T07:52:24;22.60;63.90
49184;DHT22;35021;49.214;12.270;2023-07-13T07:54:51;22.60;63.90
49184;DHT22;35021;49.214;12.270;2023-07-13T07:57:21;22.50;63.90
49184;DHT22;35021;49.214;12.270;2023-07-13T07:59:51;22.50;64.00
49184;DHT22;35021;49.214;12.270;2023-07-13T08:02:21;22.50;64.00
49184;DHT22;35021;49.214;12.270;2023-07-13T08:04:51;22.50;64.00
49184;DHT22;35021;49.214;12.270;2023-07-13T08:07:22;22.40;64.00
49184;DHT22;35021;49.214;12.270;2023-07-13T08:09:52;22.50;64.00
49184;DHT22;35021;49.214;12.270;2023-07-13T08:12:19;22.40;64.00
49184;DHT22;35021;49.214;12.270;2023-07-13T08:15:10;22.40;64.10
49184;DHT22;35021;49.214;12.270;2023-07-13T08:17:38;22.40;63.90
49184;DHT22;35021;49.214;12.270;2023-07-13T08:20:05;22.40;63.90
49184;DHT22;35021;49.214;12.270;2023-07-13T08:22:32;22.40;63.80
49184;DHT22;35021;49.214;12.270;2023-07-13T08:25:00;22.40;63.70
49184;DHT22;35021;49.214;12.270;2023-07-13T08:27:28;22.40;63.50
49184;DHT22;35021;49.214;12.270;2023-07-13T08:29:55;22.50;63.20
49184;DHT22;35021;49.214;12.270;2023-07-13T08:32:23;22.40;62.80
49184;DHT22;35021;49.214;12.270;2023-07-13T08:34:51;22.40;62.20
49184;DHT22;35021;49.214;12.270;2023-07-13T08:37:19;22.40;61.90
49184;DHT22;35021;49.214;12.270;2023-07-13T08:39:46;22.50;61.70
49184;DHT22;35021;49.214;12.270;2023-07-13T08:42:42;22.50;61.30
49184;DHT22;35021;49.214;12.270;2023-07-13T08:45:47;22.50;61.10
49184;DHT22;35021;49.214;12.270;2023-07-13T08:48:27;22.50;61.10
49184;DHT22;35021;49.214;12.270;2023-07-13T08:53:54;22.50;60.40
49184;DHT22;35021;49.214;12.270;2023-07-13T08:56:29;22.50;60.10
49184;DHT22;35021;49.214;12.270;2023-07-13T08:59:17;22.50;60.30
49184;DHT22;35021;49.214;12.270;2023-07-13T09:04:50;22.50;59.90
49184;DHT22;35021;49.214;12.270;2023-07-13T09:13:02;22.40;59.30
49184;DHT22;35021;49.214;12.270;2023-07-13T09:15:40;22.40;59.70
49184;DHT22;35021;49.214;12.270;2023-07-13T09:20:37;22.40;59.20
49184;DHT22;35021;49.214;12.270;2023-07-13T09:23:14;22.40;59.40
49184;DHT22;35021;49.214;12.270;2023-07-13T09:25:42;22.40;59.30
49184;DHT22;35021;49.214;12.270;2023-07-13T09:28:28;22.40;59.20
49184;DHT22;35021;49.214;12.270;2023-07-13T09:33:46;22.40;58.70
49184;DHT22;35021;49.214;12.270;2023-07-13T09:36:26;22.40;58.40
49184;DHT22;35021;49.214;12.270;2023-07-13T09:41:39;22.50;57.80
49184;DHT22;35021;49.214;12.270;2023-07-13T09:44:12;22.40;57.30
49184;DHT22;35021;49.214;12.270;2023-07-13T09:46:52;22.40;57.00
49184;DHT22;35021;49.214;12.270;2023-07-13T09:49:42;22.40;56.90
49184;DHT22;35021;49.214;12.270;2023-07-13T09:52:15;22.40;56.70
49184;DHT22;35021;49.214;12.270;2023-07-13T09:54:51;22.40;56.50
49184;DHT22;35021;49.214;12.270;2023-07-13T09:57:20;22.40;56.40
49184;DHT22;35021;49.214;12.270;2023-07-13T10:00:00;22.50;56.20
49184;DHT22;35021;49.214;12.270;2023-07-13T10:02:33;22.50;56.40
49184;DHT22;35021;49.214;12.270;2023-07-13T10:05:06;22.60;56.30
49184;DHT22;35021;49.214;12.270;2023-07-13T10:07:43;22.60;56.50
49184;DHT22;35021;49.214;12.270;2023-07-13T10:10:20;22.60;56.50
49184;DHT22;35021;49.214;12.270;2023-07-13T10:12:50;22.70;56.50
49184;DHT22;35021;49.214;12.270;2023-07-13T10:15:23;22.70;56.10
49184;DHT22;35021;49.214;12.270;2023-07-13T10:17:54;22.70;56.20
49184;DHT22;35021;49.214;12.270;2023-07-13T10:20:25;22.80;56.10
49184;DHT22;35021;49.214;12.270;2023-07-13T10:23:05;22.80;55.90
49184;DHT22;35021;49.214;12.270;2023-07-13T10:25:38;22.80;55.90
49184;DHT22;35021;49.214;12.270;2023-07-13T10:28:33;22.90;55.90
49184;DHT22;35021;49.214;12.270;2023-07-13T10:31:02;22.90;55.80
49184;DHT22;35021;49.214;12.270;2023-07-13T10:33:32;22.90;55.80
49184;DHT22;35021;49.214;12.270;2023-07-13T10:36:28;22.90;56.60
49184;DHT22;35021;49.214;12.270;2023-07-13T10:38:58;22.90;55.70
49184;DHT22;35021;49.214;12.270;2023-07-13T10:41:30;23.00;55.70
49184;DHT22;35021;49.214;12.270;2023-07-13T10:43:59;23.00;55.60
49184;DHT22;35021;49.214;12.270;2023-07-13T10:46:28;23.00;55.70
49184;DHT22;35021;49.214;12.270;2023-07-13T10:49:02;23.00;55.60
49184;DHT22;35021;49.214;12.270;2023-07-13T10:51:31;23.00;55.50
49184;DHT22;35021;49.214;12.270;2023-07-13T10:54:32;23.00;55.50
49184;DHT22;35021;49.214;12.270;2023-07-13T10:59:47;23.10;55.20
49184;DHT22;35021;49.214;12.270;2023-07-13T11:02:26;23.10;55.00
49184;DHT22;35021;49.214;12.270;2023-07-13T11:04:56;23.10;55.00
49184;DHT22;35021;49.214;12.270;2023-07-13T11:07:29;23.10;55.20
49184;DHT22;35021;49.214;12.270;2023-07-13T11:09:59;23.10;55.00
49184;DHT22;35021;49.214;12.270;2023-07-13T11:12:29;23.10;54.70
49184;DHT22;35021;49.214;12.270;2023-07-13T11:15:28;23.10;54.60
49184;DHT22;35021;49.214;12.270;2023-07-13T11:17:56;23.10;54.40
49184;DHT22;35021;49.214;12.270;2023-07-13T11:20:33;23.10;54.50
49184;DHT22;35021;49.214;12.270;2023-07-13T11:23:29;23.00;54.40
49184;DHT22;35021;49.214;12.270;2023-07-13T11:25:54;23.10;54.40
49184;DHT22;35021;49.214;12.270;2023-07-13T11:28:24;23.10;55.00
49184;DHT22;35021;49.214;12.270;2023-07-13T11:33:28;23.10;55.20
49184;DHT22;35021;49.214;12.270;2023-07-13T11:35:59;23.10;54.80
49184;DHT22;35021;49.214;12.270;2023-07-13T11:38:40;23.10;55.30
49184;DHT22;35021;49.214;12.270;2023-07-13T11:41:42;23.10;54.60
49184;DHT22;35021;49.214;12.270;2023-07-13T11:44:16;23.00;54.60
49184;DHT22;35021;49.214;12.270;2023-07-13T11:46:49;23.00;54.30
49184;DHT22;35021;49.214;12.270;2023-07-13T11:49:25;23.00;54.20
49184;DHT22;35021;49.214;12.270;2023-07-13T11:51:54;23.00;54.10
49184;DHT22;35021;49.214;12.270;2023-07-13T11:54:41;23.00;53.90
49184;DHT22;35021;49.214;12.270;2023-07-13T11:57:28;23.00;53.40
49184;DHT22;35021;49.214;12.270;2023-07-13T12:00:03;23.00;53.00
49184;DHT22;35021;49.214;12.270;2023-07-13T12:02:37;23.00;52.90
49184;DHT22;35021;49.214;12.270;2023-07-13T12:05:08;23.00;52.90
49184;DHT22;35021;49.214;12.270;2023-07-13T12:07:37;23.00;53.00
49184;DHT22;35021;49.214;12.270;2023-07-13T12:12:53;23.10;52.50
49184;DHT22;35021;49.214;12.270;2023-07-13T12:15:21;23.10;52.40
49184;DHT22;35021;49.214;12.270;2023-07-13T12:17:56;23.10;52.20
49184;DHT22;35021;49.214;12.270;2023-07-13T12:20:26;23.10;52.40
49184;DHT22;35021;49.214;12.270;2023-07-13T12:22:54;23.10;52.10
49184;DHT22;35021;49.214;12.270;2023-07-13T12:25:29;23.10;52.30
49184;DHT22;35021;49.214;12.270;2023-07-13T12:27:56;23.20;52.80
49184;DHT22;35021;49.214;12.270;2023-07-13T12:30:30;23.20;52.60
49184;DHT22;35021;49.214;12.270;2023-07-13T12:33:21;23.10;52.30
49184;DHT22;35021;49.214;12.270;2023-07-13T12:35:52;23.20;52.10
49184;DHT22;35021;49.214;12.270;2023-07-13T12:38:19;23.20;52.40
49184;DHT22;35021;49.214;12.270;2023-07-13T12:40:50;23.20;52.00
49184;DHT22;35021;49.214;12.270;2023-07-13T12:43:20;23.20;51.80
49184;DHT22;35021;49.214;12.270;2023-07-13T12:46:01;23.20;51.80
49184;DHT22;35021;49.214;12.270;2023-07-13T12:48:28;23.30;51.90
49184;DHT22;35021;49.214;12.270;2023-07-13T12:51:13;23.30;52.20
49184;DHT22;35021;49.214;12.270;2023-07-13T12:53:56;23.20;52.00
49184;DHT22;35021;49.214;12.270;2023-07-13T12:56:26;23.20;52.10
49184;DHT22;35021;49.214;12.270;2023-07-13T12:58:59;23.20;52.20
49184;DHT22;35021;49.214;12.270;2023-07-13T13:01:31;23.20;52.50
49184;DHT22;35021;49.214;12.270;2023-07-13T13:04:01;23.10;51.60
49184;DHT22;35021;49.214;12.270;2023-07-13T13:06:33;23.10;51.10
49184;DHT22;35021;49.214;12.270;2023-07-13T13:09:03;23.10;50.80
49184;DHT22;35021;49.214;12.270;2023-07-13T13:11:36;23.10;50.80
49184;DHT22;35021;49.214;12.270;2023-07-13T13:14:03;23.10;50.40
49184;DHT22;35021;49.214;12.270;2023-07-13T13:16:33;23.10;50.60
49184;DHT22;35021;49.214;12.270;2023-07-13T13:19:18;23.10;50.70
49184;DHT22;35021;49.214;12.270;2023-07-13T13:21:46;23.10;51.30
49184;DHT22;35021;49.214;12.270;2023-07-13T13:24:16;23.10;51.10
49184;DHT22;35021;49.214;12.270;2023-07-13T13:26:44;23.10;51.50
49184;DHT22;35021;49.214;12.270;2023-07-13T13:29:17;23.10;50.90
49184;DHT22;35021;49.214;12.270;2023-07-13T13:31:45;23.10;50.50
49184;DHT22;35021;49.214;12.270;2023-07-13T13:34:17;23.10;51.00
49184;DHT22;35021;49.214;12.270;2023-07-13T13:36:46;23.10;50.60
49184;DHT22;35021;49.214;12.270;2023-07-13T13:39:28;23.10;51.00
49184;DHT22;35021;49.214;12.270;2023-07-13T13:41:56;23.20;50.80
49184;DHT22;35021;49.214;12.270;2023-07-13T13:44:23;23.20;49.90
49184;DHT22;35021;49.214;12.270;2023-07-13T13:46:53;23.20;49.60
49184;DHT22;35021;49.214;12.270;2023-07-13T13:49:24;23.20;49.60
49184;DHT22;35021;49.214;12.270;2023-07-13T13:51:53;23.20;49.50
49184;DHT22;35021;49.214;12.270;2023-07-13T13:54:24;23.20;49.60
49184;DHT22;35021;49.214;12.270;2023-07-13T13:56:52;23.30;49.20
49184;DHT22;35021;49.214;12.270;2023-07-13T13:59:19;23.30;49.90
49184;DHT22;35021;49.214;12.270;2023-07-13T14:01:47;23.30;49.20
49184;DHT22;35021;49.214;12.270;2023-07-13T14:04:21;23.30;50.30
49184;DHT22;35021;49.214;12.270;2023-07-13T14:06:48;23.30;49.20
49184;DHT22;35021;49.214;12.270;2023-07-13T14:09:18;23.40;49.40
49184;DHT22;35021;49.214;12.270;2023-07-13T14:11:48;23.40;48.70
49184;DHT22;35021;49.214;12.270;2023-07-13T14:14:20;23.40;48.60
49184;DHT22;35021;49.214;12.270;2023-07-13T14:16:50;23.40;49.20
49184;DHT22;35021;49.214;12.270;2023-07-13T14:19:21;23.40;49.10
49184;DHT22;35021;49.214;12.270;2023-07-13T14:21:49;23.40;48.90
49184;DHT22;35021;49.214;12.270;2023-07-13T14:24:16;23.50;48.60
49184;DHT22;35021;49.214;12.270;2023-07-13T14:26:46;23.50;48.50
49184;DHT22;35021;49.214;12.270;2023-07-13T14:29:17;23.50;48.40
49184;DHT22;35021;49.214;12.270;2023-07-13T14:31:49;23.50;48.40
49184;DHT22;35021;49.214;12.270;2023-07-13T14:34:16;23.50;48.50
49184;DHT22;35021;49.214;12.270;2023-07-13T14:36:46;23.50;48.60
49184;DHT22;35021;49.214;12.270;2023-07-13T14:39:24;23.50;48.60
49184;DHT22;35021;49.214;12.270;2023-07-13T14:41:53;23.60;48.80
49184;DHT22;35021;49.214;12.270;2023-07-13T14:44:26;23.50;48.90
49184;DHT22;35021;49.214;12.270;2023-07-13T14:46:57;23.50;48.80
49184;DHT22;35021;49.214;12.270;2023-07-13T14:49:31;23.50;49.10
49184;DHT22;35021;49.214;12.270;2023-07-13T14:52:02;23.50;49.10
49184;DHT22;35021;49.214;12.270;2023-07-13T14:54:30;23.50;48.90
49184;DHT22;35021;49.214;12.270;2023-07-13T14:56:58;23.40;49.30
49184;DHT22;35021;49.214;12.270;2023-07-13T14:59:25;23.40;49.40
49184;DHT22;35021;49.214;12.270;2023-07-13T15:01:52;23.40;49.50
49184;DHT22;35021;49.214;12.270;2023-07-13T15:04:19;23.40;49.10
49184;DHT22;35021;49.214;12.270;2023-07-13T15:06:57;23.30;49.20
49184;DHT22;35021;49.214;12.270;2023-07-13T15:09:26;23.30;49.10
49184;DHT22;35021;49.214;12.270;2023-07-13T15:11:57;23.30;48.80
49184;DHT22;35021;49.214;12.270;2023-07-13T15:14:25;23.30;48.50
49184;DHT22;35021;49.214;12.270;2023-07-13T15:16:55;23.30;48.70
49184;DHT22;35021;49.214;12.270;2023-07-13T15:19:26;23.30;48.70
49184;DHT22;35021;49.214;12.270;2023-07-13T15:21:55;23.30;49.00
49184;DHT22;35021;49.214;12.270;2023-07-13T15:24:28;23.30;48.80
49184;DHT22;35021;49.214;12.270;2023-07-13T15:26:55;23.30;48.40
49184;DHT22;35021;49.214;12.270;2023-07-13T15:29:22;23.30;48.80
49184;DHT22;35021;49.214;12.270;2023-07-13T15:31:50;23.30;48.80
49184;DHT22;35021;49.214;12.270;2023-07-13T15:34:20;23.30;48.60
49184;DHT22;35021;49.214;12.270;2023-07-13T15:36:48;23.30;48.50
49184;DHT22;35021;49.214;12.270;2023-07-13T15:39:16;23.30;48.20
49184;DHT22;35021;49.214;12.270;2023-07-13T15:41:45;23.30;48.30
49184;DHT22;35021;49.214;12.270;2023-07-13T15:44:29;23.30;47.80
49184;DHT22;35021;49.214;12.270;2023-07-13T15:46:58;23.40;47.70
49184;DHT22;35021;49.214;12.270;2023-07-13T15:49:27;23.40;47.80
49184;DHT22;35021;49.214;12.270;2023-07-13T15:51:55;23.40;48.00
49184;DHT22;35021;49.214;12.270;2023-07-13T15:54:22;23.30;48.20
49184;DHT22;35021;49.214;12.270;2023-07-13T15:56:55;23.30;48.10
49184;DHT22;35021;49.214;12.270;2023-07-13T15:59:27;23.30;48.10
49184;DHT22;35021;49.214;12.270;2023-07-13T16:01:54;23.30;48.50
49184;DHT22;35021;49.214;12.270;2023-07-13T16:04:21;23.20;48.30
49184;DHT22;35021;49.214;12.270;2023-07-13T16:06:49;23.20;48.50
49184;DHT22;35021;49.214;12.270;2023-07-13T16:09:20;23.20;48.60
49184;DHT22;35021;49.214;12.270;2023-07-13T16:11:50;23.20;48.30
49184;DHT22;35021;49.214;12.270;2023-07-13T16:14:18;23.20;48.20
49184;DHT22;35021;49.214;12.270;2023-07-13T16:16:47;23.20;48.10
49184;DHT22;35021;49.214;12.270;2023-07-13T16:19:15;23.20;48.10
49184;DHT22;35021;49.214;12.270;2023-07-13T16:21:46;23.20;48.10
49184;DHT22;35021;49.214;12.270;2023-07-13T16:24:22;23.20;47.90
49184;DHT22;35021;49.214;12.270;2023-07-13T16:26:52;23.20;48.10
49184;DHT22;35021;49.214;12.270;2023-07-13T16:29:21;23.20;47.80
49184;DHT22;35021;49.214;12.270;2023-07-13T16:32:06;23.30;47.80